createdAt,value
2023-04-04T00:00:54.026Z,100587.50
2023-04-04T00:03:29.161Z,100585.80
2023-04-04T00:05:57.365Z,100582.85
2023-04-04T00:08:25.666Z,100582.67
2023-04-04T00:11:01.405Z,100583.50
2023-04-04T00:13:31.136Z,100583.30
2023-04-04T00:15:59.206Z,100577.11
2023-04-04T00:18:27.332Z,100579.04
2023-04-04T00:20:55.491Z,100582.13
2023-04-04T00:23:27.709Z,100578.17
2023-04-04T00:25:56.095Z,100582.83
2023-04-04T00:28:24.225Z,100586.45
2023-04-04T00:30:52.366Z,100591.11
2023-04-04T00:33:21.749Z,100589.56
2023-04-04T00:35:50.348Z,100595.21
2023-04-04T00:38:19.157Z,100594.02
2023-04-04T00:40:48.014Z,100597.83
2023-04-04T00:43:17.167Z,100592.48
2023-04-04T00:45:46.271Z,100590.72
2023-04-04T00:48:17.962Z,100592.77
2023-04-04T00:50:46.023Z,100595.19
2023-04-04T00:53:14.308Z,100591.52
2023-04-04T00:55:44.186Z,100585.65
2023-04-04T00:58:14.209Z,100580.33
2023-04-04T01:00:43.021Z,100576.36
2023-04-04T01:03:25.027Z,100579.42
2023-04-04T01:05:55.029Z,100579.89
2023-04-04T01:08:23.510Z,100584.71
2023-04-04T01:10:52.445Z,100580.41
2023-04-04T01:13:21.280Z,100578.51
2023-04-04T01:15:49.580Z,100578.01
2023-04-04T01:18:19.176Z,100585.60
2023-04-04T01:20:55.668Z,100587.65
2023-04-04T01:23:24.996Z,100583.66
2023-04-04T01:25:59.877Z,100586.04
2023-04-04T01:28:27.977Z,100587.38
2023-04-04T01:30:56.905Z,100588.02
2023-04-04T01:33:29.423Z,100589.20
2023-04-04T01:35:58.335Z,100592.98
2023-04-04T01:38:31.517Z,100594.49
2023-04-04T01:41:02.626Z,100598.27
2023-04-04T01:43:34.761Z,100602.27
2023-04-04T01:46:04.140Z,100602.83
2023-04-04T01:48:32.429Z,100611.98
2023-04-04T01:51:04.896Z,100611.63
2023-04-04T01:53:33.859Z,100611.80
2023-04-04T01:56:02.591Z,100613.36
2023-04-04T01:58:33.784Z,100613.77
2023-04-04T02:01:02.118Z,100615.04
2023-04-04T02:03:30.820Z,100611.98
2023-04-04T02:05:58.873Z,100608.79
2023-04-04T02:08:28.880Z,100606.10
2023-04-04T02:10:57.917Z,100606.48
2023-04-04T02:13:31.458Z,100606.83
2023-04-04T02:16:04.559Z,100603.90
2023-04-04T02:18:33.665Z,100603.07
2023-04-04T02:21:01.832Z,100597.75
2023-04-04T02:23:31.361Z,100595.00
2023-04-04T02:25:59.730Z,100593.66
2023-04-04T02:28:32.243Z,100592.96
2023-04-04T02:31:03.990Z,100585.20
2023-04-04T02:33:33.298Z,100578.98
2023-04-04T02:36:07.718Z,100575.18
2023-04-04T02:38:36.801Z,100573.29
2023-04-04T02:41:06.434Z,100571.05
2023-04-04T02:43:34.542Z,100566.93
2023-04-04T02:46:14.448Z,100561.59
2023-04-04T02:48:47.385Z,100560.55
2023-04-04T02:51:15.933Z,100557.81
2023-04-04T02:53:43.989Z,100552.87
2023-04-04T02:56:21.364Z,100552.38
2023-04-04T02:58:50.570Z,100557.60
2023-04-04T03:01:19.138Z,100566.22
2023-04-04T03:03:47.942Z,100580.04
2023-04-04T03:06:16.211Z,100588.48
2023-04-04T03:08:44.233Z,100593.15
2023-04-04T03:11:13.594Z,100591.60
2023-04-04T03:13:42.048Z,100593.84
2023-04-04T03:16:10.479Z,100592.80
2023-04-04T03:18:48.624Z,100596.09
2023-04-04T03:21:20.207Z,100600.23
2023-04-04T03:23:49.020Z,100606.44
2023-04-04T03:26:17.149Z,100611.82
2023-04-04T03:28:46.153Z,100612.02
2023-04-04T03:31:14.959Z,100609.96
2023-04-04T03:33:45.294Z,100608.78
2023-04-04T03:36:13.500Z,100608.80
2023-04-04T03:38:44.772Z,100608.96
2023-04-04T03:41:13.109Z,100611.01
2023-04-04T03:43:43.300Z,100610.82
2023-04-04T03:46:11.480Z,100608.05
2023-04-04T03:48:39.739Z,100603.94
2023-04-04T03:51:11.297Z,100607.53
2023-04-04T03:53:40.929Z,100608.55
2023-04-04T03:56:12.617Z,100617.35
2023-04-04T03:58:43.054Z,100616.15
2023-04-04T04:01:13.595Z,100618.40
2023-04-04T04:03:45.372Z,100621.55
2023-04-04T04:06:13.496Z,100616.11
2023-04-04T04:08:41.524Z,100618.55
2023-04-04T04:11:12.560Z,100626.70
2023-04-04T04:13:40.725Z,100632.58
2023-04-04T04:16:09.280Z,100636.16
2023-04-04T04:18:38.138Z,100635.30
2023-04-04T04:21:07.645Z,100637.00
2023-04-04T04:23:36.816Z,100641.31
2023-04-04T04:26:05.496Z,100641.64
2023-04-04T04:28:34.643Z,100641.44
2023-04-04T04:31:07.632Z,100642.07
2023-04-04T04:33:36.839Z,100640.67
2023-04-04T04:36:08.265Z,100645.30
2023-04-04T04:39:02.444Z,100646.67
2023-04-04T04:41:33.512Z,100644.58
2023-04-04T04:44:02.311Z,100651.29
2023-04-04T04:46:32.325Z,100649.39
2023-04-04T04:49:06.567Z,100652.29
2023-04-04T04:51:36.325Z,100652.33
2023-04-04T04:54:04.469Z,100650.30
2023-04-04T04:56:34.354Z,100647.02
2023-04-04T04:59:09.297Z,100647.02
2023-04-04T05:01:42.996Z,100645.48
2023-04-04T05:04:11.380Z,100646.34
2023-04-04T05:06:45.087Z,100648.04
2023-04-04T05:09:15.776Z,100652.52
2023-04-04T05:11:47.919Z,100644.20
2023-04-04T05:14:16.522Z,100650.72
2023-04-04T05:16:53.776Z,100645.19
2023-04-04T05:19:22.942Z,100643.30
2023-04-04T05:21:54.309Z,100649.39
2023-04-04T05:24:43.898Z,100648.88
2023-04-04T05:27:14.756Z,100648.70
2023-04-04T05:29:48.341Z,100646.82
2023-04-04T05:32:19.283Z,100655.65
2023-04-04T05:34:54.143Z,100663.64
2023-04-04T05:37:23.106Z,100657.77
2023-04-04T05:39:53.972Z,100635.66
2023-04-04T05:42:23.399Z,100636.40
2023-04-04T05:44:53.404Z,100646.75
2023-04-04T05:47:23.027Z,100662.27
2023-04-04T05:49:52.315Z,100678.65
2023-04-04T05:52:22.017Z,100682.80
2023-04-04T05:54:51.521Z,100682.73
2023-04-04T05:57:26.257Z,100682.70
2023-04-04T06:00:00.692Z,100691.67
2023-04-04T06:02:32.259Z,100692.85
2023-04-04T06:05:04.261Z,100692.67
2023-04-04T06:07:36.086Z,100691.65
2023-04-04T06:10:04.709Z,100689.98
2023-04-04T06:12:35.841Z,100693.77
2023-04-04T06:15:07.853Z,100694.27
2023-04-04T06:17:38.070Z,100703.20
2023-04-04T06:20:08.562Z,100705.05
2023-04-04T06:22:36.965Z,100701.04
2023-04-04T06:25:06.614Z,100699.98
2023-04-04T06:27:36.512Z,100700.66
2023-04-04T06:30:08.969Z,100696.36
2023-04-04T06:32:45.301Z,100698.61
2023-04-04T06:35:20.105Z,100690.46
2023-04-04T06:37:56.998Z,100687.50
2023-04-04T06:40:27.847Z,100689.52
2023-04-04T06:42:58.445Z,100692.76
2023-04-04T06:45:39.270Z,100691.17
2023-04-04T06:48:07.907Z,100688.73
2023-04-04T06:50:36.811Z,100684.77
2023-04-04T06:53:08.684Z,100690.12
2023-04-04T06:55:37.225Z,100684.41
2023-04-04T06:58:10.539Z,100678.38
2023-04-04T07:00:38.979Z,100683.23
2023-04-04T07:03:08.096Z,100685.16
2023-04-04T07:05:39.678Z,100686.02
2023-04-04T07:08:08.805Z,100687.91
2023-04-04T07:10:38.527Z,100688.73
2023-04-04T07:13:10.152Z,100689.89
2023-04-04T07:15:38.369Z,100690.50
2023-04-04T07:18:07.976Z,100692.17
2023-04-04T07:20:36.537Z,100689.73
2023-04-04T07:23:04.832Z,100688.65
2023-04-04T07:25:33.139Z,100690.83
2023-04-04T07:28:11.859Z,100695.11
2023-04-04T07:30:42.371Z,100700.76
2023-04-04T07:33:11.711Z,100704.69
2023-04-04T07:35:40.203Z,100702.57
2023-04-04T07:38:17.662Z,100705.65
2023-04-04T07:40:45.792Z,100705.63
2023-04-04T07:43:14.193Z,100709.12
2023-04-04T07:45:42.261Z,100712.06
2023-04-04T07:48:10.371Z,100712.93
2023-04-04T07:50:38.636Z,100716.91
2023-04-04T07:53:07.591Z,100715.36
2023-04-04T07:55:35.680Z,100715.53
2023-04-04T07:58:04.410Z,100712.45
2023-04-04T08:00:32.696Z,100709.19
2023-04-04T08:03:20.699Z,100708.80
2023-04-04T08:05:49.161Z,100713.23
2023-04-04T08:08:17.389Z,100712.19
2023-04-04T08:10:46.886Z,100713.02
2023-04-04T08:13:16.102Z,100714.89
2023-04-04T08:15:44.307Z,100720.76
2023-04-04T08:18:12.526Z,100722.48
2023-04-04T08:20:41.587Z,100715.58
2023-04-04T08:23:10.076Z,100708.65
2023-04-04T08:25:39.481Z,100709.88
2023-04-04T08:28:08.341Z,100711.60
2023-04-04T08:30:36.876Z,100712.27
2023-04-04T08:33:13.021Z,100715.86
2023-04-04T08:35:41.517Z,100714.08
2023-04-04T08:38:09.633Z,100710.95
2023-04-04T08:40:38.842Z,100707.80
2023-04-04T08:43:09.454Z,100706.41
2023-04-04T08:45:39.442Z,100710.10
2023-04-04T08:48:08.003Z,100709.23
2023-04-04T08:50:37.098Z,100714.06
2023-04-04T08:53:06.368Z,100716.94
2023-04-04T08:55:35.536Z,100717.92
2023-04-04T08:58:03.899Z,100722.18
2023-04-04T09:00:32.515Z,100719.71
2023-04-04T09:03:15.680Z,100719.48
2023-04-04T09:05:45.001Z,100723.59
2023-04-04T09:08:13.887Z,100726.85
2023-04-04T09:10:44.266Z,100730.78
2023-04-04T09:13:16.124Z,100732.98
2023-04-04T09:15:48.212Z,100734.50
2023-04-04T09:18:16.728Z,100733.94
2023-04-04T09:20:45.528Z,100734.06
2023-04-04T09:23:14.524Z,100734.52
2023-04-04T09:28:24.068Z,100727.10
2023-04-04T09:30:52.426Z,100730.32
2023-04-04T09:33:24.798Z,100728.41
2023-04-04T09:35:59.973Z,100727.88
2023-04-04T09:38:31.420Z,100729.55
2023-04-04T09:41:00.000Z,100735.19
2023-04-04T09:43:31.060Z,100734.61
2023-04-04T09:46:00.463Z,100734.39
2023-04-04T09:48:33.431Z,100730.73
2023-04-04T09:51:04.123Z,100729.54
2023-04-04T09:53:34.359Z,100728.66
2023-04-04T09:56:03.682Z,100725.85
2023-04-04T09:58:36.189Z,100727.83
2023-04-04T10:01:07.610Z,100726.72
2023-04-04T10:03:36.856Z,100726.48
2023-04-04T10:06:10.888Z,100725.90
2023-04-04T10:08:39.645Z,100725.68
2023-04-04T10:11:11.871Z,100729.77
2023-04-04T10:13:42.149Z,100726.43
2023-04-04T10:16:12.241Z,100728.64
2023-04-04T10:18:41.573Z,100725.66
2023-04-04T10:23:42.875Z,100722.94
2023-04-04T10:26:13.118Z,100719.54
2023-04-04T10:28:44.445Z,100712.88
2023-04-04T10:31:17.582Z,100713.46
2023-04-04T10:33:49.093Z,100709.53
2023-04-04T10:36:21.946Z,100708.92
2023-04-04T10:39:10.136Z,100709.90
2023-04-04T10:41:38.274Z,100707.55
2023-04-04T10:44:34.041Z,100708.50
2023-04-04T10:47:23.474Z,100709.43
2023-04-04T10:49:52.097Z,100709.96
2023-04-04T10:52:20.972Z,100714.52
2023-04-04T10:54:52.946Z,100720.20
2023-04-04T10:57:23.343Z,100724.15
2023-04-04T11:00:08.921Z,100722.61
2023-04-04T11:02:45.885Z,100724.03
2023-04-04T11:05:24.423Z,100720.76
2023-04-04T11:08:07.580Z,100719.36
2023-04-04T11:10:43.428Z,100719.97
2023-04-04T11:13:17.406Z,100719.54
2023-04-04T11:15:48.299Z,100719.05
2023-04-04T11:18:40.470Z,100719.46
2023-04-04T11:21:10.409Z,100722.85
2023-04-04T11:23:48.591Z,100725.23
2023-04-04T11:26:34.475Z,100723.56
2023-04-04T11:29:08.183Z,100725.05
2023-04-04T11:31:47.463Z,100726.58
2023-04-04T11:34:16.689Z,100726.92
2023-04-04T11:36:47.544Z,100726.27
2023-04-04T11:39:25.781Z,100730.32
2023-04-04T11:41:54.265Z,100724.46
2023-04-04T11:44:24.124Z,100722.91
2023-04-04T11:46:56.046Z,100719.10
2023-04-04T11:49:29.136Z,100718.90
2023-04-04T11:51:57.480Z,100716.42
2023-04-04T11:54:32.629Z,100716.69
2023-04-04T11:57:01.676Z,100716.75
2023-04-04T11:59:33.398Z,100717.48
2023-04-04T12:02:03.265Z,100720.40
2023-04-04T12:04:31.885Z,100721.59
2023-04-04T12:07:00.563Z,100723.95
2023-04-04T12:09:29.509Z,100727.08
2023-04-04T12:11:58.122Z,100723.96
2023-04-04T12:14:28.017Z,100722.08
2023-04-04T12:16:57.628Z,100723.49
2023-04-04T12:19:26.674Z,100721.47
2023-04-04T12:21:57.470Z,100717.54
2023-04-04T12:24:26.813Z,100712.48
2023-04-04T12:26:54.980Z,100708.44
2023-04-04T12:29:23.242Z,100704.92
2023-04-04T12:31:51.676Z,100701.60
2023-04-04T12:37:03.938Z,100697.05
2023-04-04T12:39:32.272Z,100695.86
2023-04-04T12:42:02.576Z,100693.73
2023-04-04T12:44:38.230Z,100696.85
2023-04-04T12:47:09.000Z,100690.77
2023-04-04T12:49:40.791Z,100693.36
2023-04-04T12:52:16.815Z,100694.27
2023-04-04T12:54:48.754Z,100691.73
2023-04-04T12:57:19.573Z,100687.94
2023-04-04T12:59:48.445Z,100687.95
2023-04-04T13:02:20.076Z,100689.86
2023-04-04T13:04:57.647Z,100684.33
2023-04-04T13:07:27.512Z,100682.79
2023-04-04T13:09:56.583Z,100683.28
2023-04-04T13:12:52.864Z,100684.48
2023-04-04T13:15:21.295Z,100684.98
2023-04-04T13:17:50.508Z,100678.69
2023-04-04T13:20:20.408Z,100676.92
2023-04-04T13:22:48.508Z,100673.45
2023-04-04T13:25:23.471Z,100671.02
2023-04-04T13:27:52.405Z,100667.84
2023-04-04T13:30:20.445Z,100667.22
2023-04-04T13:32:48.812Z,100664.21
2023-04-04T13:35:17.973Z,100664.45
2023-04-04T13:37:47.469Z,100665.91
2023-04-04T13:40:15.620Z,100663.06
2023-04-04T13:42:44.113Z,100656.89
2023-04-04T13:45:13.645Z,100659.04
2023-04-04T13:47:41.788Z,100657.95
2023-04-04T13:50:10.556Z,100654.42
2023-04-04T13:52:39.098Z,100649.36
2023-04-04T13:55:07.298Z,100652.94
2023-04-04T13:57:36.222Z,100649.47
2023-04-04T14:00:05.734Z,100647.20
2023-04-04T14:02:42.422Z,100648.08
2023-04-04T14:05:10.524Z,100650.63
2023-04-04T14:07:38.865Z,100654.98
2023-04-04T14:10:13.797Z,100656.41
2023-04-04T14:12:42.994Z,100656.75
2023-04-04T14:15:12.394Z,100656.58
2023-04-04T14:17:43.342Z,100660.54
2023-04-04T14:20:11.840Z,100657.02
2023-04-04T14:22:40.109Z,100652.66
2023-04-04T14:25:08.834Z,100655.63
2023-04-04T14:27:38.822Z,100656.70
2023-04-04T14:30:08.207Z,100653.57
2023-04-04T14:32:37.902Z,100646.69
2023-04-04T14:35:06.369Z,100643.61
2023-04-04T14:37:34.793Z,100641.24
2023-04-04T14:40:04.211Z,100641.50
2023-04-04T14:42:32.933Z,100644.89
2023-04-04T14:45:05.304Z,100647.58
2023-04-04T14:47:34.967Z,100642.10
2023-04-04T14:50:04.319Z,100643.02
2023-04-04T14:52:32.579Z,100648.80
2023-04-04T14:55:01.202Z,100650.57
2023-04-04T14:57:51.947Z,100653.56
2023-04-04T15:00:26.731Z,100648.73
2023-04-04T15:02:55.100Z,100646.16
2023-04-04T15:05:28.720Z,100647.19
2023-04-04T15:07:56.784Z,100645.98
2023-04-04T15:10:25.241Z,100647.20
2023-04-04T15:12:55.357Z,100647.21
2023-04-04T15:15:23.835Z,100647.72
2023-04-04T15:17:52.798Z,100646.52
2023-04-04T15:20:21.905Z,100650.49
2023-04-04T15:22:50.719Z,100647.39
2023-04-04T15:25:18.776Z,100648.78
2023-04-04T15:27:47.896Z,100646.70
2023-04-04T15:30:16.210Z,100651.35
2023-04-04T15:32:45.452Z,100653.44
2023-04-04T15:35:17.832Z,100651.17
2023-04-04T15:37:46.534Z,100645.59
2023-04-04T15:40:16.074Z,100648.69
2023-04-04T15:42:44.853Z,100650.60
2023-04-04T15:45:13.227Z,100646.48
2023-04-04T15:47:42.436Z,100643.92
2023-04-04T15:50:11.966Z,100645.65
2023-04-04T15:52:41.903Z,100646.34
2023-04-04T15:55:13.643Z,100642.02
2023-04-04T15:57:44.847Z,100640.86
2023-04-04T16:00:13.985Z,100636.21
2023-04-04T16:02:44.054Z,100635.70
2023-04-04T16:05:12.773Z,100635.02
2023-04-04T16:07:41.068Z,100631.54
2023-04-04T16:10:13.482Z,100627.58
2023-04-04T16:12:42.166Z,100625.35
2023-04-04T16:15:12.558Z,100622.11
2023-04-04T16:17:41.020Z,100614.70
2023-04-04T16:20:10.387Z,100611.82
2023-04-04T16:22:38.629Z,100606.02
2023-04-04T16:25:09.108Z,100607.31
2023-04-04T16:27:37.794Z,100604.45
2023-04-04T16:30:09.630Z,100605.58
2023-04-04T16:32:38.579Z,100603.39
2023-04-04T16:35:07.086Z,100603.09
2023-04-04T16:37:37.276Z,100602.09
2023-04-04T16:40:06.834Z,100600.02
2023-04-04T16:42:35.178Z,100597.73
2023-04-04T16:45:03.557Z,100594.78
2023-04-04T16:47:32.011Z,100593.05
2023-04-04T16:50:01.592Z,100590.52
2023-04-04T16:52:31.392Z,100588.30
2023-04-04T16:54:59.710Z,100582.30
2023-04-04T16:57:27.970Z,100579.89
2023-04-04T16:59:56.106Z,100582.15
2023-04-04T17:02:24.301Z,100580.15
2023-04-04T17:04:52.794Z,100579.80
2023-04-04T17:07:21.431Z,100577.58
2023-04-04T17:09:51.619Z,100572.02
2023-04-04T17:12:23.142Z,100572.71
2023-04-04T17:14:53.847Z,100565.45
2023-04-04T17:17:22.162Z,100560.99
2023-04-04T17:19:50.216Z,100557.39
2023-04-04T17:22:18.420Z,100561.25
2023-04-04T17:24:46.564Z,100568.27
2023-04-04T17:27:14.618Z,100570.41
2023-04-04T17:29:43.208Z,100572.02
2023-04-04T17:32:11.961Z,100571.02
2023-04-04T17:34:40.844Z,100567.39
